This is the latest recevied weather packets stored in our database for station/object K3SV. If no packets are shown the sender has not sent any weather packets the latest 1 day(s).
| Time | Temp. | Humidity | Pressure | Rain* | Wind** | Luminosity | Snow |
|---|---|---|---|---|---|---|---|
| 1778003703 | 30° C | 48% | 1015.5 hPa | 0 mm | 0.89 m/s, 58° | 775 W/m² | - |
| 1778003401 | 29.44° C | 49% | 1015.8 hPa | 0 mm | 1.79 m/s, 36° | 786 W/m² | - |
| 1778003098 | 29.44° C | 50% | 1015.7 hPa | 0 mm | 0.45 m/s, 157° | 789 W/m² | - |
| 1778002793 | 29.44° C | 49% | 1015.8 hPa | 0 mm | 0.45 m/s, 80° | 756 W/m² | - |
| 1778002490 | 28.89° C | 49% | 1016 hPa | 0 mm | 0.45 m/s, 127° | 753 W/m² | - |
| 1778002187 | 28.33° C | 48% | 1016.1 hPa | 0 mm | 0.89 m/s, 189° | 754 W/m² | - |
| 1778001886 | 28.89° C | 48% | 1016.3 hPa | 0 mm | 0 m/s | 232 W/m² | - |
| 1778001584 | 28.89° C | 50% | 1016.1 hPa | 0 mm | 0 m/s | 396 W/m² | - |
| 1778001281 | 28.89° C | 50% | 1016.2 hPa | 0 mm | 0.89 m/s, 131° | 267 W/m² | - |
| 1778000977 | 28.33° C | 51% | 1016.2 hPa | 0 mm | 0 m/s | 789 W/m² | - |
| 1778000674 | 28.33° C | 51% | 1016.2 hPa | 0 mm | 2.24 m/s, 182° | 360 W/m² | - |
| 1778000370 | 28.33° C | 51% | 1016.3 hPa | 0 mm | 2.24 m/s, 179° | 301 W/m² | - |
| 1778000066 | 27.78° C | 53% | 1016.3 hPa | 0 mm | 0.45 m/s, 107° | 771 W/m² | - |
| 1777999761 | 27.78° C | 52% | 1016.4 hPa | 0 mm | 0 m/s | 472 W/m² | - |
| 1777999458 | 27.78° C | 53% | 1016.2 hPa | 0 mm | 1.34 m/s, 196° | 274 W/m² | - |
| 1777999156 | 27.78° C | 53% | 1016.4 hPa | 0 mm | 0 m/s | 186 W/m² | - |
| 1777998855 | 28.33° C | 52% | 1016.2 hPa | 0 mm | 0.89 m/s, 174° | 202 W/m² | - |
| 1777998554 | 28.33° C | 53% | 1016.4 hPa | 0 mm | 0 m/s | 266 W/m² | - |
| 1777998249 | 28.89° C | 51% | 1016.2 hPa | 0 mm | 1.34 m/s, 65° | 275 W/m² | - |
| 1777997946 | 28.89° C | 51% | 1016.2 hPa | 0 mm | 0.45 m/s, 59° | 880 W/m² | - |
| 1777997643 | 29.44° C | 51% | 1016.4 hPa | 0 mm | 0.45 m/s, 75° | 864 W/m² | - |
| 1777997340 | 29.44° C | 49% | 1016.4 hPa | 0 mm | 0 m/s | 743 W/m² | - |
| 1777997038 | 28.33° C | 51% | 1016.3 hPa | 0 mm | 0.45 m/s, 348° | 857 W/m² | - |
| 1777996735 | 27.78° C | 52% | 1016.4 hPa | 0 mm | 0.89 m/s, 261° | 764 W/m² | - |
| 1777996430 | 27.78° C | 54% | 1016.3 hPa | 0 mm | 2.24 m/s, 43° | 448 W/m² | - |
* Rain latest hour (hover to see other rain measurements)
** Current wind speed in m/s (hover to see current wind gust speed)